sensor_id;sensor_type;location;lat;lon;timestamp;pressure;altitude;pressure_sealevel;temperature;humidity
72636;BME280;60679;48.888;15.544;2022-09-23T01:33:24;96653.88;;;2.25;75.42
72636;BME280;60679;48.888;15.544;2022-09-23T01:38:54;96651.88;;;2.19;75.51
72636;BME280;60679;48.888;15.544;2022-09-23T01:46:56;96636.00;;;2.10;75.66
72636;BME280;60679;48.888;15.544;2022-09-23T01:49:32;96645.03;;;2.09;75.66
72636;BME280;60679;48.888;15.544;2022-09-23T01:52:26;96639.69;;;2.09;75.70
72636;BME280;60679;48.888;15.544;2022-09-23T01:55:01;96632.84;;;2.06;75.75
72636;BME280;60679;48.888;15.544;2022-09-23T01:57:34;96638.34;;;2.05;75.76
72636;BME280;60679;48.888;15.544;2022-09-23T02:00:14;96630.84;;;2.00;75.76
72636;BME280;60679;48.888;15.544;2022-09-23T02:03:29;96628.50;;;1.97;75.89
72636;BME280;60679;48.888;15.544;2022-09-23T02:05:37;96628.81;;;1.94;75.81
72636;BME280;60679;48.888;15.544;2022-09-23T02:10:47;96634.28;;;1.85;75.92
72636;BME280;60679;48.888;15.544;2022-09-23T02:13:17;96637.25;;;1.82;75.96
72636;BME280;60679;48.888;15.544;2022-09-23T02:15:49;96634.25;;;1.77;nan
72636;BME280;60679;48.888;15.544;2022-09-23T02:18:21;96633.72;;;1.73;76.00
72636;BME280;60679;48.888;15.544;2022-09-23T02:20:50;96640.38;;;1.69;75.93
72636;BME280;60679;48.888;15.544;2022-09-23T02:23:33;96635.38;;;1.66;76.06
72636;BME280;60679;48.888;15.544;2022-09-23T02:42:20;96621.59;;;1.37;76.27
72636;BME280;60679;48.888;15.544;2022-09-23T02:44:47;96629.88;;;1.34;76.19
72636;BME280;60679;48.888;15.544;2022-09-23T02:47:12;96628.53;;;1.30;76.27
72636;BME280;60679;48.888;15.544;2022-09-23T02:49:38;96629.53;;;1.29;76.45
72636;BME280;60679;48.888;15.544;2022-09-23T02:52:06;96627.16;;;1.26;76.22
72636;BME280;60679;48.888;15.544;2022-09-23T02:54:32;96630.81;;;1.25;76.44
72636;BME280;60679;48.888;15.544;2022-09-23T02:57:00;96630.16;;;1.23;76.45
72636;BME280;60679;48.888;15.544;2022-09-23T02:59:27;96621.63;;;1.19;76.42
72636;BME280;60679;48.888;15.544;2022-09-23T03:02:25;96619.28;;;1.16;76.51
72636;BME280;60679;48.888;15.544;2022-09-23T03:04:56;96625.63;;;1.15;76.47
72636;BME280;60679;48.888;15.544;2022-09-23T03:18:56;96621.84;;;1.26;76.69
72636;BME280;60679;48.888;15.544;2022-09-23T03:21:40;96617.06;;;1.29;76.50
72636;BME280;60679;48.888;15.544;2022-09-23T03:24:08;96613.38;;;1.30;76.70
72636;BME280;60679;48.888;15.544;2022-09-23T03:26:36;96610.72;;;1.30;76.60
72636;BME280;60679;48.888;15.544;2022-09-23T03:29:06;96620.03;;;1.26;76.56
72636;BME280;60679;48.888;15.544;2022-09-23T03:31:36;96612.69;;;1.20;76.58
72636;BME280;60679;48.888;15.544;2022-09-23T03:34:24;96605.94;;;1.08;76.56
72636;BME280;60679;48.888;15.544;2022-09-23T03:36:55;96610.91;;;1.03;76.65
72636;BME280;60679;48.888;15.544;2022-09-23T03:39:45;96607.72;;;0.99;76.68
72636;BME280;60679;48.888;15.544;2022-09-23T03:42:24;96606.38;;;0.95;76.77
72636;BME280;60679;48.888;15.544;2022-09-23T03:44:52;96606.38;;;0.95;76.65
72636;BME280;60679;48.888;15.544;2022-09-23T03:47:23;96606.38;;;0.95;76.87
72636;BME280;60679;48.888;15.544;2022-09-23T03:49:50;96606.38;;;0.95;76.75
72636;BME280;60679;48.888;15.544;2022-09-23T03:52:19;96599.25;;;0.96;76.90
72636;BME280;60679;48.888;15.544;2022-09-23T03:54:44;96596.91;;;0.93;76.90
72636;BME280;60679;48.888;15.544;2022-09-23T03:57:10;96603.88;;;0.94;76.79
72636;BME280;60679;48.888;15.544;2022-09-23T03:59:37;96595.22;;;0.92;76.65
72636;BME280;60679;48.888;15.544;2022-09-23T04:02:09;96592.56;;;0.92;77.01
72636;BME280;60679;48.888;15.544;2022-09-23T04:04:36;96597.03;;;0.91;76.86
72636;BME280;60679;48.888;15.544;2022-09-23T04:07:04;96597.22;;;0.90;76.92
72636;BME280;60679;48.888;15.544;2022-09-23T04:09:30;96596.50;;;0.88;76.99
72636;BME280;60679;48.888;15.544;2022-09-23T04:11:55;96599.47;;;0.85;77.04
72636;BME280;60679;48.888;15.544;2022-09-23T04:14:21;96599.66;;;0.83;76.93
72636;BME280;60679;48.888;15.544;2022-09-23T04:16:48;96601.94;;;0.78;76.96
72636;BME280;60679;48.888;15.544;2022-09-23T04:19:14;96596.78;;;0.77;77.03
72636;BME280;60679;48.888;15.544;2022-09-23T04:21:41;96597.91;;;0.74;76.81
72636;BME280;60679;48.888;15.544;2022-09-23T04:24:07;96597.78;;;0.76;77.22
72636;BME280;60679;48.888;15.544;2022-09-23T04:26:33;96592.47;;;0.76;77.19
72636;BME280;60679;48.888;15.544;2022-09-23T04:28:59;96610.91;;;0.77;77.14
72636;BME280;60679;48.888;15.544;2022-09-23T04:31:24;96597.25;;;0.72;77.07
72636;BME280;60679;48.888;15.544;2022-09-23T04:33:53;96597.88;;;0.66;77.22
72636;BME280;60679;48.888;15.544;2022-09-23T04:36:20;96592.19;;;0.61;77.20
72636;BME280;60679;48.888;15.544;2022-09-23T04:38:46;96582.53;;;0.60;77.17
72636;BME280;60679;48.888;15.544;2022-09-23T04:41:13;96582.16;;;0.55;77.23
72636;BME280;60679;48.888;15.544;2022-09-23T04:43:39;96594.63;;;0.54;77.16
72636;BME280;60679;48.888;15.544;2022-09-23T04:46:06;96591.13;;;0.54;77.13
72636;BME280;60679;48.888;15.544;2022-09-23T04:48:32;96595.44;;;0.55;77.03
72636;BME280;60679;48.888;15.544;2022-09-23T04:53:37;96593.47;;;0.57;77.07
72636;BME280;60679;48.888;15.544;2022-09-23T04:56:05;96606.44;;;0.60;76.95
72636;BME280;60679;48.888;15.544;2022-09-23T04:58:31;96601.00;;;0.62;76.93
72636;BME280;60679;48.888;15.544;2022-09-23T05:00:57;96604.16;;;0.65;77.03
72636;BME280;60679;48.888;15.544;2022-09-23T05:03:23;96603.41;;;0.73;76.88
72636;BME280;60679;48.888;15.544;2022-09-23T05:05:49;96600.94;;;0.79;76.89
72636;BME280;60679;48.888;15.544;2022-09-23T05:08:14;96604.00;;;0.84;76.81
72636;BME280;60679;48.888;15.544;2022-09-23T05:10:40;96602.53;;;0.90;76.74
72636;BME280;60679;48.888;15.544;2022-09-23T05:13:07;96602.94;;;1.03;76.80
72636;BME280;60679;48.888;15.544;2022-09-23T05:15:33;96606.31;;;1.13;76.44
72636;BME280;60679;48.888;15.544;2022-09-23T05:17:58;96610.19;;;1.19;76.38
72636;BME280;60679;48.888;15.544;2022-09-23T05:20:24;96612.06;;;1.26;76.32
72636;BME280;60679;48.888;15.544;2022-09-23T05:22:49;96604.13;;;1.34;76.19
72636;BME280;60679;48.888;15.544;2022-09-23T05:25:14;96611.81;;;1.45;76.12
72636;BME280;60679;48.888;15.544;2022-09-23T05:27:43;96607.88;;;1.57;76.13
72636;BME280;60679;48.888;15.544;2022-09-23T05:30:09;96604.09;;;1.68;75.69
72636;BME280;60679;48.888;15.544;2022-09-23T05:32:34;96602.63;;;1.73;75.72
72636;BME280;60679;48.888;15.544;2022-09-23T05:34:59;96608.81;;;1.82;75.81
72636;BME280;60679;48.888;15.544;2022-09-23T05:37:25;96609.66;;;1.91;75.60
72636;BME280;60679;48.888;15.544;2022-09-23T05:39:51;96614.19;;;1.98;75.57
72636;BME280;60679;48.888;15.544;2022-09-23T05:42:16;96611.72;;;2.05;75.48
72636;BME280;60679;48.888;15.544;2022-09-23T05:44:42;96615.38;;;2.12;75.46
72636;BME280;60679;48.888;15.544;2022-09-23T05:47:08;96617.38;;;2.18;75.51
72636;BME280;60679;48.888;15.544;2022-09-23T05:49:33;96609.91;;;2.21;75.37
72636;BME280;60679;48.888;15.544;2022-09-23T05:52:01;96607.44;;;2.28;75.29
72636;BME280;60679;48.888;15.544;2022-09-23T05:54:26;96604.78;;;2.36;75.19
72636;BME280;60679;48.888;15.544;2022-09-23T05:56:51;96604.78;;;2.44;75.17
72636;BME280;60679;48.888;15.544;2022-09-23T05:59:17;96603.28;;;2.50;75.22
72636;BME280;60679;48.888;15.544;2022-09-23T06:01:43;96599.63;;;2.59;75.02
72636;BME280;60679;48.888;15.544;2022-09-23T06:04:11;96603.78;;;2.69;75.03
72636;BME280;60679;48.888;15.544;2022-09-23T06:06:39;96602.94;;;2.77;74.92
72636;BME280;60679;48.888;15.544;2022-09-23T06:09:06;96604.28;;;2.81;74.90
72636;BME280;60679;48.888;15.544;2022-09-23T06:11:34;96603.09;;;2.91;74.84
72636;BME280;60679;48.888;15.544;2022-09-23T06:14:00;96604.44;;;3.04;74.83
72636;BME280;60679;48.888;15.544;2022-09-23T06:16:27;96611.56;;;3.19;74.92
72636;BME280;60679;48.888;15.544;2022-09-23T06:18:52;96605.72;;;3.32;74.79
72636;BME280;60679;48.888;15.544;2022-09-23T06:21:18;96607.19;;;3.42;74.46
72636;BME280;60679;48.888;15.544;2022-09-23T06:23:44;96608.84;;;3.52;74.59
72636;BME280;60679;48.888;15.544;2022-09-23T06:26:12;96611.63;;;3.66;74.48
72636;BME280;60679;48.888;15.544;2022-09-23T06:28:39;96611.94;;;3.71;74.42
72636;BME280;60679;48.888;15.544;2022-09-23T06:31:07;96619.06;;;3.79;74.42
72636;BME280;60679;48.888;15.544;2022-09-23T06:33:34;96621.19;;;3.91;74.24
72636;BME280;60679;48.888;15.544;2022-09-23T06:36:04;96622.13;;;4.06;74.15
72636;BME280;60679;48.888;15.544;2022-09-23T06:38:30;96614.09;;;4.15;74.04
72636;BME280;60679;48.888;15.544;2022-09-23T06:40:57;96619.47;;;4.29;74.08
72636;BME280;60679;48.888;15.544;2022-09-23T06:43:24;96621.72;;;4.48;74.00
72636;BME280;60679;48.888;15.544;2022-09-23T06:45:53;96620.06;;;4.70;73.63
72636;BME280;60679;48.888;15.544;2022-09-23T06:48:20;96616.25;;;4.87;73.54
72636;BME280;60679;48.888;15.544;2022-09-23T06:50:46;96620.25;;;5.06;73.37
72636;BME280;60679;48.888;15.544;2022-09-23T06:53:13;96620.13;;;5.37;73.45
72636;BME280;60679;48.888;15.544;2022-09-23T06:55:38;96622.66;;;5.67;73.04
72636;BME280;60679;48.888;15.544;2022-09-23T06:58:06;96619.16;;;5.96;72.87
72636;BME280;60679;48.888;15.544;2022-09-23T07:00:32;96620.41;;;6.29;72.49
72636;BME280;60679;48.888;15.544;2022-09-23T07:02:57;96619.44;;;6.52;72.09
72636;BME280;60679;48.888;15.544;2022-09-23T07:05:23;96618.56;;;6.87;71.63
72636;BME280;60679;48.888;15.544;2022-09-23T07:07:48;96615.19;;;7.27;71.52
72636;BME280;60679;48.888;15.544;2022-09-23T07:10:13;96620.47;;;7.70;71.35
72636;BME280;60679;48.888;15.544;2022-09-23T07:12:39;96625.66;;;8.12;70.69
72636;BME280;60679;48.888;15.544;2022-09-23T07:15:06;96622.78;;;8.54;70.44
72636;BME280;60679;48.888;15.544;2022-09-23T07:17:32;96620.19;;;8.94;70.02
72636;BME280;60679;48.888;15.544;2022-09-23T07:19:58;96625.78;;;9.32;69.60
72636;BME280;60679;48.888;15.544;2022-09-23T07:22:24;96630.38;;;9.70;69.07
72636;BME280;60679;48.888;15.544;2022-09-23T07:24:51;96624.50;;;10.13;68.57
72636;BME280;60679;48.888;15.544;2022-09-23T07:27:22;96621.66;;;10.52;68.09
72636;BME280;60679;48.888;15.544;2022-09-23T07:29:48;96616.38;;;11.01;67.92
72636;BME280;60679;48.888;15.544;2022-09-23T07:32:14;96620.13;;;11.56;67.56
72636;BME280;60679;48.888;15.544;2022-09-23T07:34:40;96619.28;;;12.05;66.98
72636;BME280;60679;48.888;15.544;2022-09-23T07:37:07;96612.56;;;12.62;66.70
72636;BME280;60679;48.888;15.544;2022-09-23T07:39:33;96610.94;;;13.09;65.86
72636;BME280;60679;48.888;15.544;2022-09-23T07:41:58;96614.56;;;13.45;65.71
72636;BME280;60679;48.888;15.544;2022-09-23T07:44:24;96614.47;;;13.86;65.29
72636;BME280;60679;48.888;15.544;2022-09-23T07:46:49;96610.94;;;14.32;64.88
72636;BME280;60679;48.888;15.544;2022-09-23T07:49:15;96609.75;;;14.79;64.39
72636;BME280;60679;48.888;15.544;2022-09-23T07:51:41;96610.19;;;15.16;63.78
72636;BME280;60679;48.888;15.544;2022-09-23T07:54:15;96614.78;;;15.44;63.40
72636;BME280;60679;48.888;15.544;2022-09-23T07:56:41;96614.78;;;15.89;62.96
72636;BME280;60679;48.888;15.544;2022-09-23T07:59:10;96618.03;;;16.24;62.69
72636;BME280;60679;48.888;15.544;2022-09-23T08:01:41;96618.41;;;16.71;62.09
72636;BME280;60679;48.888;15.544;2022-09-23T08:06:46;96615.78;;;17.51;61.23
72636;BME280;60679;48.888;15.544;2022-09-23T08:09:12;96620.38;;;17.72;61.02
72636;BME280;60679;48.888;15.544;2022-09-23T08:11:38;96619.56;;;18.09;60.67
72636;BME280;60679;48.888;15.544;2022-09-23T08:14:10;96618.81;;;18.55;60.04
72636;BME280;60679;48.888;15.544;2022-09-23T08:16:38;96610.78;;;18.95;59.71
72636;BME280;60679;48.888;15.544;2022-09-23T08:19:04;96612.53;;;19.37;59.05
72636;BME280;60679;48.888;15.544;2022-09-23T08:21:29;96607.97;;;19.68;58.59
72636;BME280;60679;48.888;15.544;2022-09-23T08:23:55;96611.28;;;19.70;57.54
72636;BME280;60679;48.888;15.544;2022-09-23T08:26:20;96616.47;;;19.61;57.58
72636;BME280;60679;48.888;15.544;2022-09-23T08:28:46;96611.28;;;20.00;57.25
72636;BME280;60679;48.888;15.544;2022-09-23T08:31:12;96618.34;;;20.61;57.25
72636;BME280;60679;48.888;15.544;2022-09-23T08:33:39;96614.09;;;21.09;56.70
72636;BME280;60679;48.888;15.544;2022-09-23T08:36:05;96620.06;;;21.26;55.99
72636;BME280;60679;48.888;15.544;2022-09-23T08:38:30;96620.59;;;21.72;55.85
72636;BME280;60679;48.888;15.544;2022-09-23T08:41:16;96616.13;;;22.20;54.71
72636;BME280;60679;48.888;15.544;2022-09-23T08:43:48;96615.59;;;22.47;53.66
72636;BME280;60679;48.888;15.544;2022-09-23T08:46:20;96608.97;;;22.77;53.01
72636;BME280;60679;48.888;15.544;2022-09-23T08:48:48;96597.91;;;23.24;52.87
72636;BME280;60679;48.888;15.544;2022-09-23T08:51:19;96593.81;;;23.64;52.16
72636;BME280;60679;48.888;15.544;2022-09-23T08:53:47;96598.56;;;24.28;51.72
72636;BME280;60679;48.888;15.544;2022-09-23T08:56:15;96596.78;;;24.83;50.79
72636;BME280;60679;48.888;15.544;2022-09-23T08:58:43;96589.31;;;24.84;49.37
72636;BME280;60679;48.888;15.544;2022-09-23T09:01:33;96588.63;;;25.55;49.38
72636;BME280;60679;48.888;15.544;2022-09-23T09:04:04;96598.66;;;26.45;47.86
72636;BME280;60679;48.888;15.544;2022-09-23T09:06:40;96594.84;;;26.63;46.25
72636;BME280;60679;48.888;15.544;2022-09-23T09:09:31;96577.34;;;27.32;45.82
72636;BME280;60679;48.888;15.544;2022-09-23T09:12:07;96584.16;;;28.08;43.77
72636;BME280;60679;48.888;15.544;2022-09-23T09:22:56;96572.44;;;30.99;39.92
72636;BME280;60679;48.888;15.544;2022-09-23T09:28:10;96563.53;;;32.34;37.46
72636;BME280;60679;48.888;15.544;2022-09-23T09:30:37;96568.44;;;32.80;36.09
72636;BME280;60679;48.888;15.544;2022-09-23T09:33:11;96557.78;;;33.64;35.77
72636;BME280;60679;48.888;15.544;2022-09-23T09:35:58;96556.66;;;34.80;34.63
72636;BME280;60679;48.888;15.544;2022-09-23T09:38:28;96548.59;;;35.99;33.37
72636;BME280;60679;48.888;15.544;2022-09-23T09:40:54;96554.06;;;36.48;32.40
72636;BME280;60679;48.888;15.544;2022-09-23T09:43:24;96548.94;;;37.31;31.04
72636;BME280;60679;48.888;15.544;2022-09-23T09:46:05;96543.28;;;38.47;30.25
72636;BME280;60679;48.888;15.544;2022-09-23T09:48:57;96542.63;;;39.03;29.47
72636;BME280;60679;48.888;15.544;2022-09-23T09:51:27;96538.22;;;39.44;28.71
72636;BME280;60679;48.888;15.544;2022-09-23T09:53:54;96538.53;;;40.20;28.40
72636;BME280;60679;48.888;15.544;2022-09-23T09:56:39;96537.91;;;40.75;26.93
72636;BME280;60679;48.888;15.544;2022-09-23T09:59:10;96534.47;;;41.60;26.71
72636;BME280;60679;48.888;15.544;2022-09-23T10:01:40;96535.75;;;37.96;31.05
72636;BME280;60679;48.888;15.544;2022-09-23T10:04:32;96539.94;;;29.63;41.93
72636;BME280;60679;48.888;15.544;2022-09-23T10:07:27;96532.22;;;33.85;33.42
72636;BME280;60679;48.888;15.544;2022-09-23T10:09:53;96531.16;;;38.53;28.19
72636;BME280;60679;48.888;15.544;2022-09-23T10:12:20;96527.38;;;40.75;26.35
72636;BME280;60679;48.888;15.544;2022-09-23T10:14:49;96526.81;;;34.11;35.48
72636;BME280;60679;48.888;15.544;2022-09-23T10:17:21;96517.84;;;38.43;28.94
72636;BME280;60679;48.888;15.544;2022-09-23T10:19:49;96511.69;;;36.67;31.07
72636;BME280;60679;48.888;15.544;2022-09-23T10:22:22;96508.00;;;41.73;25.20
72636;BME280;60679;48.888;15.544;2022-09-23T10:24:49;96509.69;;;42.08;25.06
72636;BME280;60679;48.888;15.544;2022-09-23T10:27:26;96514.16;;;43.77;23.70
72636;BME280;60679;48.888;15.544;2022-09-23T10:29:54;96509.28;;;44.40;23.47
72636;BME280;60679;48.888;15.544;2022-09-23T10:32:33;96509.72;;;44.58;22.96
72636;BME280;60679;48.888;15.544;2022-09-23T10:37:52;96497.75;;;44.27;22.45
72636;BME280;60679;48.888;15.544;2022-09-23T10:40:40;96499.00;;;45.17;21.96
72636;BME280;60679;48.888;15.544;2022-09-23T10:44:05;96489.78;;;44.58;22.24
72636;BME280;60679;48.888;15.544;2022-09-23T10:47:00;96491.03;;;43.75;22.54
72636;BME280;60679;48.888;15.544;2022-09-23T11:00:18;96474.34;;;42.43;24.77
72636;BME280;60679;48.888;15.544;2022-09-23T11:05:42;96464.66;;;45.53;21.86
72636;BME280;60679;48.888;15.544;2022-09-23T11:24:54;96426.41;;;49.33;17.04
72636;BME280;60679;48.888;15.544;2022-09-23T11:35:23;96417.84;;;50.42;14.78
72636;BME280;60679;48.888;15.544;2022-09-23T11:38:12;96412.22;;;50.48;14.32
72636;BME280;60679;48.888;15.544;2022-09-23T11:40:41;96413.22;;;49.63;14.52
72636;BME280;60679;48.888;15.544;2022-09-23T11:43:26;96402.84;;;39.50;22.64
72636;BME280;60679;48.888;15.544;2022-09-23T11:45:59;96393.19;;;34.90;25.88
72636;BME280;60679;48.888;15.544;2022-09-23T11:51:48;96394.72;;;47.79;13.91
72636;BME280;60679;48.888;15.544;2022-09-23T11:54:25;96394.59;;;49.18;13.03
72636;BME280;60679;48.888;15.544;2022-09-23T11:56:59;96396.59;;;48.91;13.32
72636;BME280;60679;48.888;15.544;2022-09-23T11:59:46;96392.66;;;48.76;12.95
72636;BME280;60679;48.888;15.544;2022-09-23T12:02:19;96371.78;;;45.04;15.49
72636;BME280;60679;48.888;15.544;2022-09-23T12:04:54;96385.69;;;35.83;22.90
72636;BME280;60679;48.888;15.544;2022-09-23T12:07:42;96369.91;;;41.60;16.60
72636;BME280;60679;48.888;15.544;2022-09-23T12:10:10;96366.38;;;41.49;16.64
72636;BME280;60679;48.888;15.544;2022-09-23T12:26:16;96368.81;;;49.28;11.14
72636;BME280;60679;48.888;15.544;2022-09-23T12:28:46;96363.53;;;48.46;12.24
72636;BME280;60679;48.888;15.544;2022-09-23T12:31:17;96353.19;;;41.31;16.20
72636;BME280;60679;48.888;15.544;2022-09-23T12:33:51;96359.78;;;46.53;12.27
72636;BME280;60679;48.888;15.544;2022-09-23T12:36:33;96359.88;;;49.26;10.64
72636;BME280;60679;48.888;15.544;2022-09-23T12:39:06;96354.59;;;50.24;10.46
72636;BME280;60679;48.888;15.544;2022-09-23T12:41:37;96350.69;;;51.20;10.27
72636;BME280;60679;48.888;15.544;2022-09-23T12:46:43;96337.81;;;50.73;10.07
72636;BME280;60679;48.888;15.544;2022-09-23T12:49:40;96327.25;;;40.37;16.73
72636;BME280;60679;48.888;15.544;2022-09-23T12:54:42;96332.06;;;31.53;22.21
72636;BME280;60679;48.888;15.544;2022-09-23T12:57:10;96322.59;;;34.16;19.43
72636;BME280;60679;48.888;15.544;2022-09-23T13:02:30;96308.00;;;48.31;9.83
72636;BME280;60679;48.888;15.544;2022-09-23T13:05:07;96316.34;;;50.42;9.44
72636;BME280;60679;48.888;15.544;2022-09-23T13:08:17;96302.53;;;48.24;10.78
72636;BME280;60679;48.888;15.544;2022-09-23T13:10:46;96293.91;;;41.07;15.02
72636;BME280;60679;48.888;15.544;2022-09-23T13:13:36;96297.50;;;35.32;18.93
72636;BME280;60679;48.888;15.544;2022-09-23T13:16:20;96306.91;;;33.32;19.91
72636;BME280;60679;48.888;15.544;2022-09-23T13:22:02;96291.03;;;46.81;10.42
72636;BME280;60679;48.888;15.544;2022-09-23T13:27:27;96285.78;;;48.93;9.37
72636;BME280;60679;48.888;15.544;2022-09-23T13:30:15;96279.59;;;49.95;9.39
72636;BME280;60679;48.888;15.544;2022-09-23T13:33:10;96274.69;;;49.68;9.58
72636;BME280;60679;48.888;15.544;2022-09-23T13:35:47;96263.47;;;49.79;9.13
72636;BME280;60679;48.888;15.544;2022-09-23T13:38:23;96269.19;;;50.48;8.89
72636;BME280;60679;48.888;15.544;2022-09-23T13:40:52;96265.19;;;50.46;8.75
72636;BME280;60679;48.888;15.544;2022-09-23T13:43:36;96257.00;;;50.11;8.67
72636;BME280;60679;48.888;15.544;2022-09-23T13:46:09;96257.53;;;49.83;8.63
72636;BME280;60679;48.888;15.544;2022-09-23T13:48:39;96254.41;;;49.17;8.83
72636;BME280;60679;48.888;15.544;2022-09-23T13:51:09;96244.34;;;45.42;11.24
72636;BME280;60679;48.888;15.544;2022-09-23T13:53:36;96242.69;;;45.57;10.57
72636;BME280;60679;48.888;15.544;2022-09-23T13:56:11;96236.03;;;47.33;9.69
72636;BME280;60679;48.888;15.544;2022-09-23T13:58:39;96225.31;;;47.46;9.57
72636;BME280;60679;48.888;15.544;2022-09-23T14:01:14;96219.06;;;47.61;9.40
72636;BME280;60679;48.888;15.544;2022-09-23T14:03:44;96221.16;;;47.91;9.06
72636;BME280;60679;48.888;15.544;2022-09-23T14:06:11;96222.03;;;48.10;8.65
72636;BME280;60679;48.888;15.544;2022-09-23T14:08:41;96217.16;;;48.68;8.81
72636;BME280;60679;48.888;15.544;2022-09-23T14:11:13;96210.84;;;48.02;9.16
72636;BME280;60679;48.888;15.544;2022-09-23T14:13:41;96206.25;;;48.05;8.66
72636;BME280;60679;48.888;15.544;2022-09-23T14:16:09;96211.50;;;47.76;8.63
72636;BME280;60679;48.888;15.544;2022-09-23T14:18:50;96206.19;;;46.53;9.47
72636;BME280;60679;48.888;15.544;2022-09-23T14:21:38;96203.44;;;45.74;9.62
72636;BME280;60679;48.888;15.544;2022-09-23T14:24:17;96197.91;;;45.54;9.63
72636;BME280;60679;48.888;15.544;2022-09-23T14:29:35;96181.53;;;43.91;10.64
72636;BME280;60679;48.888;15.544;2022-09-23T14:32:08;96172.41;;;42.85;10.82
72636;BME280;60679;48.888;15.544;2022-09-23T14:34:53;96179.69;;;42.43;10.57
72636;BME280;60679;48.888;15.544;2022-09-23T14:40:18;96169.69;;;42.59;10.70
72636;BME280;60679;48.888;15.544;2022-09-23T14:42:49;96168.66;;;42.45;10.54
72636;BME280;60679;48.888;15.544;2022-09-23T14:45:19;96167.91;;;41.41;10.94
72636;BME280;60679;48.888;15.544;2022-09-23T14:47:48;96156.72;;;41.27;10.77
72636;BME280;60679;48.888;15.544;2022-09-23T14:50:25;96159.97;;;41.56;10.98
72636;BME280;60679;48.888;15.544;2022-09-23T14:53:04;96153.44;;;40.24;11.54
72636;BME280;60679;48.888;15.544;2022-09-23T14:55:30;96158.72;;;39.74;11.62
72636;BME280;60679;48.888;15.544;2022-09-23T14:58:02;96151.97;;;40.05;12.08
72636;BME280;60679;48.888;15.544;2022-09-23T15:00:28;96157.66;;;40.02;11.39
72636;BME280;60679;48.888;15.544;2022-09-23T15:03:03;96155.09;;;39.70;12.06
72636;BME280;60679;48.888;15.544;2022-09-23T15:05:44;96155.97;;;38.77;12.73
72636;BME280;60679;48.888;15.544;2022-09-23T15:08:16;96158.44;;;37.47;13.20
72636;BME280;60679;48.888;15.544;2022-09-23T15:10:43;96156.41;;;35.49;14.30
72636;BME280;60679;48.888;15.544;2022-09-23T15:13:20;96154.44;;;33.29;15.63
72636;BME280;60679;48.888;15.544;2022-09-23T15:15:46;96157.38;;;30.28;17.32
72636;BME280;60679;48.888;15.544;2022-09-23T15:18:33;96166.34;;;28.39;18.67
72636;BME280;60679;48.888;15.544;2022-09-23T15:21:02;96160.59;;;26.89;19.66
72636;BME280;60679;48.888;15.544;2022-09-23T15:23:33;96164.03;;;26.09;20.49
72636;BME280;60679;48.888;15.544;2022-09-23T15:26:08;96150.44;;;25.56;20.76
72636;BME280;60679;48.888;15.544;2022-09-23T15:28:34;96154.81;;;25.48;20.93
72636;BME280;60679;48.888;15.544;2022-09-23T15:30:59;96163.34;;;25.30;21.38
72636;BME280;60679;48.888;15.544;2022-09-23T15:33:28;96158.19;;;24.75;21.35
72636;BME280;60679;48.888;15.544;2022-09-23T15:35:54;96168.25;;;24.27;22.22
72636;BME280;60679;48.888;15.544;2022-09-23T15:38:23;96165.00;;;23.75;22.49
72636;BME280;60679;48.888;15.544;2022-09-23T15:40:48;96171.94;;;23.32;23.22
72636;BME280;60679;48.888;15.544;2022-09-23T15:43:16;96176.75;;;22.99;23.50
72636;BME280;60679;48.888;15.544;2022-09-23T15:45:54;96164.78;;;22.76;23.80
72636;BME280;60679;48.888;15.544;2022-09-23T15:48:27;96167.56;;;22.58;23.83
72636;BME280;60679;48.888;15.544;2022-09-23T15:50:53;96163.38;;;22.47;24.21
72636;BME280;60679;48.888;15.544;2022-09-23T15:53:26;96165.91;;;22.43;24.17
72636;BME280;60679;48.888;15.544;2022-09-23T15:55:52;96168.28;;;22.31;24.81
72636;BME280;60679;48.888;15.544;2022-09-23T15:58:19;96162.66;;;22.22;25.06
72636;BME280;60679;48.888;15.544;2022-09-23T16:00:46;96167.56;;;22.25;24.75
72636;BME280;60679;48.888;15.544;2022-09-23T16:03:13;96160.44;;;22.06;25.47
72636;BME280;60679;48.888;15.544;2022-09-23T16:05:42;96167.53;;;21.51;26.24
72636;BME280;60679;48.888;15.544;2022-09-23T16:08:09;96171.94;;;21.04;26.55
72636;BME280;60679;48.888;15.544;2022-09-23T16:10:35;96175.72;;;20.56;27.23
72636;BME280;60679;48.888;15.544;2022-09-23T16:13:02;96170.13;;;20.03;27.54
72636;BME280;60679;48.888;15.544;2022-09-23T16:15:30;96179.25;;;19.50;28.20
72636;BME280;60679;48.888;15.544;2022-09-23T16:17:58;96187.31;;;19.06;28.76
72636;BME280;60679;48.888;15.544;2022-09-23T16:20:25;96176.22;;;18.67;29.16
72636;BME280;60679;48.888;15.544;2022-09-23T16:23:02;96177.88;;;18.33;29.68
72636;BME280;60679;48.888;15.544;2022-09-23T16:25:29;96180.88;;;17.96;30.35
72636;BME280;60679;48.888;15.544;2022-09-23T16:28:00;96174.00;;;17.68;30.73
72636;BME280;60679;48.888;15.544;2022-09-23T16:30:27;96175.00;;;17.37;31.13
72636;BME280;60679;48.888;15.544;2022-09-23T16:32:53;96174.84;;;16.97;31.81
72636;BME280;60679;48.888;15.544;2022-09-23T16:35:20;96174.91;;;16.60;32.26
72636;BME280;60679;48.888;15.544;2022-09-23T16:37:47;96172.28;;;16.33;32.81
72636;BME280;60679;48.888;15.544;2022-09-23T16:40:14;96181.31;;;16.07;33.23
72636;BME280;60679;48.888;15.544;2022-09-23T16:42:41;96173.22;;;15.80;33.71
72636;BME280;60679;48.888;15.544;2022-09-23T16:45:07;96178.66;;;15.53;34.23
72636;BME280;60679;48.888;15.544;2022-09-23T16:47:33;96183.53;;;15.30;34.65
72636;BME280;60679;48.888;15.544;2022-09-23T16:49:58;96178.69;;;15.10;35.18
72636;BME280;60679;48.888;15.544;2022-09-23T16:52:24;96185.19;;;14.87;35.64
72636;BME280;60679;48.888;15.544;2022-09-23T16:54:50;96181.56;;;14.60;36.21
72636;BME280;60679;48.888;15.544;2022-09-23T16:57:15;96182.75;;;14.31;36.74
72636;BME280;60679;48.888;15.544;2022-09-23T16:59:40;96172.31;;;14.06;37.20